PWSweather.com
Personal Weather Stations
Station Observations
JAMES
NorthumberlandGB

NorthumberlandGB

Lat: 55.5507124, Lon: -2.0172811

Elevation: 362

Station Type:

High Low Average
Temperature 40.5°F4.7°C 36.1°F2.3°C 38.5°F3.6°C
Dew Point 30.9°F-0.6°C 28.7°F-1.8°C 29.6°F-1.3°C
Winds 9.2 mph 14.8 kmh Calm Calm 4.0 mph SSW6.4 kmh SSW
Wind Gusts 15.9 mph25.6 kmh 4.5 mph7.2 kmh 11.0 mph17.7 kmh
Humidity 77% 64% 70%
Pressure 30.57 in1035.2 mb 30.49 in1032.5 mb -
Precipitation 0.00 in0.0 mm - -
Hour Temp Dew Point Humidity Winds Wind Gusts Pressure Precip Precip Rate Daily Precip Total
04:26 PM 40.5°F4.7°C 29.6°F-1.3°C 65% 3.8 mph SW6.1 kmh SW 9.2 mph14.8 kmh 30.50 in1032.8 mb 0.00 in0.0 mm 0.00 in/hr0.0 mm/hr 0.00 in0.0 mm
04:27 PM 40.5°F4.7°C 29.6°F-1.3°C 65% 6.9 mph SSW11.1 kmh SSW 12.1 mph19.5 kmh 30.50 in1032.8 mb 0.00 in0.0 mm 0.00 in/hr0.0 mm/hr 0.00 in0.0 mm
04:28 PM 40.5°F4.7°C 29.6°F-1.3°C 65% 4.5 mph SW7.2 kmh SW 12.1 mph19.5 kmh 30.50 in1032.8 mb 0.00 in0.0 mm 0.00 in/hr0.0 mm/hr 0.00 in0.0 mm
04:29 PM 40.5°F4.7°C 29.6°F-1.3°C 65% 6.0 mph SSW9.7 kmh SSW 12.1 mph19.5 kmh 30.50 in1032.8 mb 0.00 in0.0 mm 0.00 in/hr0.0 mm/hr 0.00 in0.0 mm
04:30 PM 40.5°F4.7°C 29.6°F-1.3°C 65% 5.4 mph SW8.7 kmh SW 12.1 mph19.5 kmh 30.50 in1032.8 mb 0.00 in0.0 mm 0.00 in/hr0.0 mm/hr 0.00 in0.0 mm
04:31 PM 40.5°F4.7°C 29.6°F-1.3°C 65% 6.0 mph SW9.7 kmh SW 13.6 mph21.9 kmh 30.49 in1032.5 mb 0.00 in0.0 mm 0.00 in/hr0.0 mm/hr 0.00 in0.0 mm
04:32 PM 40.5°F4.7°C 29.6°F-1.3°C 65% 6.0 mph SW9.7 kmh SW 13.6 mph21.9 kmh 30.50 in1032.8 mb 0.00 in0.0 mm 0.00 in/hr0.0 mm/hr 0.00 in0.0 mm
04:33 PM 40.5°F4.7°C 29.6°F-1.3°C 65% 3.8 mph SW6.1 kmh SW 13.6 mph21.9 kmh 30.50 in1032.8 mb 0.00 in0.0 mm 0.00 in/hr0.0 mm/hr 0.00 in0.0 mm
04:34 PM 40.5°F4.7°C 29.6°F-1.3°C 65% 6.9 mph SW11.1 kmh SW 13.6 mph21.9 kmh 30.50 in1032.8 mb 0.00 in0.0 mm 0.00 in/hr0.0 mm/hr 0.00 in0.0 mm
04:35 PM 40.5°F4.7°C 29.3°F-1.5°C 64% 6.9 mph SW11.1 kmh SW 13.6 mph21.9 kmh 30.50 in1032.8 mb 0.00 in0.0 mm 0.00 in/hr0.0 mm/hr 0.00 in0.0 mm
04:36 PM 40.5°F4.7°C 29.3°F-1.5°C 64% 6.0 mph SW9.7 kmh SW 13.6 mph21.9 kmh 30.50 in1032.8 mb 0.00 in0.0 mm 0.00 in/hr0.0 mm/hr 0.00 in0.0 mm
04:37 PM 40.5°F4.7°C 29.6°F-1.3°C 65% 4.5 mph SW7.2 kmh SW 13.6 mph21.9 kmh 30.50 in1032.8 mb 0.00 in0.0 mm 0.00 in/hr0.0 mm/hr 0.00 in0.0 mm
04:38 PM 40.5°F4.7°C 29.6°F-1.3°C 65% 4.5 mph SW7.2 kmh SW 13.6 mph21.9 kmh 30.50 in1032.8 mb 0.00 in0.0 mm 0.00 in/hr0.0 mm/hr 0.00 in0.0 mm
04:39 PM 40.5°F4.7°C 29.6°F-1.3°C 65% 3.8 mph SW6.1 kmh SW 13.6 mph21.9 kmh 30.50 in1032.8 mb 0.00 in0.0 mm 0.00 in/hr0.0 mm/hr 0.00 in0.0 mm
04:40 PM 40.3°F4.6°C 29.5°F-1.4°C 65% 6.9 mph SW11.1 kmh SW 13.6 mph21.9 kmh 30.50 in1032.8 mb 0.00 in0.0 mm 0.00 in/hr0.0 mm/hr 0.00 in0.0 mm
04:41 PM 40.3°F4.6°C 29.5°F-1.4°C 65% 5.4 mph SW8.7 kmh SW 12.1 mph19.5 kmh 30.49 in1032.5 mb 0.00 in0.0 mm 0.00 in/hr0.0 mm/hr 0.00 in0.0 mm
04:42 PM 40.3°F4.6°C 29.5°F-1.4°C 65% 7.6 mph SW12.2 kmh SW 12.1 mph19.5 kmh 30.50 in1032.8 mb 0.00 in0.0 mm 0.00 in/hr0.0 mm/hr 0.00 in0.0 mm
04:43 PM 40.1°F4.5°C 29.3°F-1.5°C 65% 3.8 mph SW6.1 kmh SW 13.0 mph20.9 kmh 30.50 in1032.8 mb 0.00 in0.0 mm 0.00 in/hr0.0 mm/hr 0.00 in0.0 mm
04:44 PM 40.1°F4.5°C 29.3°F-1.5°C 65% 6.0 mph SW9.7 kmh SW 13.0 mph20.9 kmh 30.50 in1032.8 mb 0.00 in0.0 mm 0.00 in/hr0.0 mm/hr 0.00 in0.0 mm
04:45 PM 40.1°F4.5°C 29.7°F-1.3°C 66% 4.5 mph SW7.2 kmh SW 13.0 mph20.9 kmh 30.50 in1032.8 mb 0.00 in0.0 mm 0.00 in/hr0.0 mm/hr 0.00 in0.0 mm
04:46 PM 40.1°F4.5°C 29.7°F-1.3°C 66% 5.4 mph SW8.7 kmh SW 13.0 mph20.9 kmh 30.51 in1033.2 mb 0.00 in0.0 mm 0.00 in/hr0.0 mm/hr 0.00 in0.0 mm
04:47 PM 40.1°F4.5°C 29.7°F-1.3°C 66% 7.6 mph SW12.2 kmh SW 15.9 mph25.6 kmh 30.50 in1032.8 mb 0.00 in0.0 mm 0.00 in/hr0.0 mm/hr 0.00 in0.0 mm
04:48 PM 40.1°F4.5°C 29.7°F-1.3°C 66% 4.5 mph SW7.2 kmh SW 15.9 mph25.6 kmh 30.51 in1033.2 mb 0.00 in0.0 mm 0.00 in/hr0.0 mm/hr 0.00 in0.0 mm
04:49 PM 40.1°F4.5°C 29.7°F-1.3°C 66% 6.0 mph SW9.7 kmh SW 15.9 mph25.6 kmh 30.50 in1032.8 mb 0.00 in0.0 mm 0.00 in/hr0.0 mm/hr 0.00 in0.0 mm
04:50 PM 40.1°F4.5°C 29.7°F-1.3°C 66% 6.9 mph SW11.1 kmh SW 15.9 mph25.6 kmh 30.50 in1032.8 mb 0.00 in0.0 mm 0.00 in/hr0.0 mm/hr 0.00 in0.0 mm
04:51 PM 40.1°F4.5°C 29.3°F-1.5°C 65% 8.3 mph SSW13.4 kmh SSW 15.9 mph25.6 kmh 30.50 in1032.8 mb 0.00 in0.0 mm 0.00 in/hr0.0 mm/hr 0.00 in0.0 mm
04:52 PM 40.3°F4.6°C 29.5°F-1.4°C 65% 9.2 mph SSW14.8 kmh SSW 15.9 mph25.6 kmh 30.50 in1032.8 mb 0.00 in0.0 mm 0.00 in/hr0.0 mm/hr 0.00 in0.0 mm
04:53 PM 40.3°F4.6°C 29.5°F-1.4°C 65% 5.4 mph SSW8.7 kmh SSW 15.9 mph25.6 kmh 30.50 in1032.8 mb 0.00 in0.0 mm 0.00 in/hr0.0 mm/hr 0.00 in0.0 mm
04:54 PM 40.3°F4.6°C 29.5°F-1.4°C 65% 7.6 mph SSW12.2 kmh SSW 15.9 mph25.6 kmh 30.50 in1032.8 mb 0.00 in0.0 mm 0.00 in/hr0.0 mm/hr 0.00 in0.0 mm
04:55 PM 40.3°F4.6°C 29.5°F-1.4°C 65% 4.5 mph SSW7.2 kmh SSW 15.9 mph25.6 kmh 30.50 in1032.8 mb 0.00 in0.0 mm 0.00 in/hr0.0 mm/hr 0.00 in0.0 mm
04:56 PM 40.3°F4.6°C 29.5°F-1.4°C 65% 6.0 mph S9.7 kmh S 15.9 mph25.6 kmh 30.50 in1032.8 mb 0.00 in0.0 mm 0.00 in/hr0.0 mm/hr 0.00 in0.0 mm
04:57 PM 40.5°F4.7°C 29.6°F-1.3°C 65% 5.4 mph S8.7 kmh S 15.9 mph25.6 kmh 30.50 in1032.8 mb 0.00 in0.0 mm 0.00 in/hr0.0 mm/hr 0.00 in0.0 mm
04:58 PM 40.5°F4.7°C 29.6°F-1.3°C 65% 4.5 mph S7.2 kmh S 15.9 mph25.6 kmh 30.50 in1032.8 mb 0.00 in0.0 mm 0.00 in/hr0.0 mm/hr 0.00 in0.0 mm
04:59 PM 40.5°F4.7°C 29.6°F-1.3°C 65% 5.4 mph S8.7 kmh S 15.9 mph25.6 kmh 30.51 in1033.2 mb 0.00 in0.0 mm 0.00 in/hr0.0 mm/hr 0.00 in0.0 mm
05:00 PM 40.5°F4.7°C 29.6°F-1.3°C 65% 5.4 mph S8.7 kmh S 15.9 mph25.6 kmh 30.51 in1033.2 mb 0.00 in0.0 mm 0.00 in/hr0.0 mm/hr 0.00 in0.0 mm
05:01 PM 40.5°F4.7°C 29.6°F-1.3°C 65% 9.2 mph S14.8 kmh S 15.9 mph25.6 kmh 30.51 in1033.2 mb 0.00 in0.0 mm 0.00 in/hr0.0 mm/hr 0.00 in0.0 mm
05:02 PM 40.5°F4.7°C 29.6°F-1.3°C 65% 6.0 mph S9.7 kmh S 15.9 mph25.6 kmh 30.51 in1033.2 mb 0.00 in0.0 mm 0.00 in/hr0.0 mm/hr 0.00 in0.0 mm
05:03 PM 40.5°F4.7°C 29.6°F-1.3°C 65% 9.2 mph S14.8 kmh S 15.2 mph24.5 kmh 30.51 in1033.2 mb 0.00 in0.0 mm 0.00 in/hr0.0 mm/hr 0.00 in0.0 mm
05:04 PM 40.5°F4.7°C 29.6°F-1.3°C 65% 8.3 mph S13.4 kmh S 15.2 mph24.5 kmh 30.50 in1032.8 mb 0.00 in0.0 mm 0.00 in/hr0.0 mm/hr 0.00 in0.0 mm
05:05 PM 40.5°F4.7°C 29.6°F-1.3°C 65% 7.6 mph S12.2 kmh S 15.2 mph24.5 kmh 30.51 in1033.2 mb 0.00 in0.0 mm 0.00 in/hr0.0 mm/hr 0.00 in0.0 mm
05:06 PM 40.5°F4.7°C 29.6°F-1.3°C 65% 7.6 mph SSW12.2 kmh SSW 15.2 mph24.5 kmh 30.51 in1033.2 mb 0.00 in0.0 mm 0.00 in/hr0.0 mm/hr 0.00 in0.0 mm
05:07 PM 40.5°F4.7°C 29.6°F-1.3°C 65% 6.9 mph SSW11.1 kmh SSW 15.2 mph24.5 kmh 30.50 in1032.8 mb 0.00 in0.0 mm 0.00 in/hr0.0 mm/hr 0.00 in0.0 mm
05:08 PM 40.5°F4.7°C 29.3°F-1.5°C 64% 9.2 mph SW14.8 kmh SW 15.2 mph24.5 kmh 30.51 in1033.2 mb 0.00 in0.0 mm 0.00 in/hr0.0 mm/hr 0.00 in0.0 mm
05:09 PM 40.5°F4.7°C 29.3°F-1.5°C 64% 5.4 mph SW8.7 kmh SW 15.2 mph24.5 kmh 30.51 in1033.2 mb 0.00 in0.0 mm 0.00 in/hr0.0 mm/hr 0.00 in0.0 mm
05:10 PM 40.5°F4.7°C 29.6°F-1.3°C 65% 4.5 mph SW7.2 kmh SW 15.2 mph24.5 kmh 30.51 in1033.2 mb 0.00 in0.0 mm 0.00 in/hr0.0 mm/hr 0.00 in0.0 mm
05:11 PM 40.5°F4.7°C 29.3°F-1.5°C 64% 8.3 mph SW13.4 kmh SW 15.2 mph24.5 kmh 30.51 in1033.2 mb 0.00 in0.0 mm 0.00 in/hr0.0 mm/hr 0.00 in0.0 mm
05:12 PM 40.5°F4.7°C 29.6°F-1.3°C 65% 5.4 mph SW8.7 kmh SW 15.2 mph24.5 kmh 30.50 in1032.8 mb 0.00 in0.0 mm 0.00 in/hr0.0 mm/hr 0.00 in0.0 mm
05:13 PM 40.5°F4.7°C 29.6°F-1.3°C 65% 4.5 mph SW7.2 kmh SW 15.2 mph24.5 kmh 30.50 in1032.8 mb 0.00 in0.0 mm 0.00 in/hr0.0 mm/hr 0.00 in0.0 mm
05:14 PM 40.5°F4.7°C 29.6°F-1.3°C 65% 4.5 mph SW7.2 kmh SW 15.2 mph24.5 kmh 30.50 in1032.8 mb 0.00 in0.0 mm 0.00 in/hr0.0 mm/hr 0.00 in0.0 mm
05:15 PM 40.5°F4.7°C 29.6°F-1.3°C 65% 6.9 mph SW11.1 kmh SW 15.2 mph24.5 kmh 30.51 in1033.2 mb 0.00 in0.0 mm 0.00 in/hr0.0 mm/hr 0.00 in0.0 mm
05:16 PM 40.5°F4.7°C 29.6°F-1.3°C 65% 6.0 mph SSW9.7 kmh SSW 15.2 mph24.5 kmh 30.50 in1032.8 mb 0.00 in0.0 mm 0.00 in/hr0.0 mm/hr 0.00 in0.0 mm
05:17 PM 40.5°F4.7°C 29.6°F-1.3°C 65% 3.8 mph SSW6.1 kmh SSW 15.2 mph24.5 kmh 30.50 in1032.8 mb 0.00 in0.0 mm 0.00 in/hr0.0 mm/hr 0.00 in0.0 mm
05:18 PM 40.5°F4.7°C 29.6°F-1.3°C 65% 6.0 mph SSW9.7 kmh SSW 15.2 mph24.5 kmh 30.50 in1032.8 mb 0.00 in0.0 mm 0.00 in/hr0.0 mm/hr 0.00 in0.0 mm
05:19 PM 40.5°F4.7°C 29.6°F-1.3°C 65% 6.9 mph SSW11.1 kmh SSW 13.0 mph20.9 kmh 30.51 in1033.2 mb 0.00 in0.0 mm 0.00 in/hr0.0 mm/hr 0.00 in0.0 mm
05:20 PM 40.5°F4.7°C 29.6°F-1.3°C 65% 5.4 mph SSW8.7 kmh SSW 13.0 mph20.9 kmh 30.51 in1033.2 mb 0.00 in0.0 mm 0.00 in/hr0.0 mm/hr 0.00 in0.0 mm
05:21 PM 40.5°F4.7°C 29.6°F-1.3°C 65% 4.5 mph SSW7.2 kmh SSW 13.0 mph20.9 kmh 30.51 in1033.2 mb 0.00 in0.0 mm 0.00 in/hr0.0 mm/hr 0.00 in0.0 mm
05:22 PM 40.5°F4.7°C 29.6°F-1.3°C 65% 4.5 mph SSW7.2 kmh SSW 13.0 mph20.9 kmh 30.51 in1033.2 mb 0.00 in0.0 mm 0.00 in/hr0.0 mm/hr 0.00 in0.0 mm
05:23 PM 40.5°F4.7°C 29.6°F-1.3°C 65% 7.6 mph SSW12.2 kmh SSW 13.0 mph20.9 kmh 30.51 in1033.2 mb 0.00 in0.0 mm 0.00 in/hr0.0 mm/hr 0.00 in0.0 mm
05:24 PM 40.5°F4.7°C 29.6°F-1.3°C 65% 4.5 mph S7.2 kmh S 13.0 mph20.9 kmh 30.51 in1033.2 mb 0.00 in0.0 mm 0.00 in/hr0.0 mm/hr 0.00 in0.0 mm
05:25 PM 40.5°F4.7°C 29.6°F-1.3°C 65% 5.4 mph S8.7 kmh S 15.9 mph25.6 kmh 30.50 in1032.8 mb 0.00 in0.0 mm 0.00 in/hr0.0 mm/hr 0.00 in0.0 mm
05:26 PM 40.5°F4.7°C 29.6°F-1.3°C 65% 6.0 mph SSW9.7 kmh SSW 15.9 mph25.6 kmh 30.51 in1033.2 mb 0.00 in0.0 mm 0.00 in/hr0.0 mm/hr 0.00 in0.0 mm
05:27 PM 40.5°F4.7°C 29.6°F-1.3°C 65% 5.4 mph SSW8.7 kmh SSW 15.9 mph25.6 kmh 30.51 in1033.2 mb 0.00 in0.0 mm 0.00 in/hr0.0 mm/hr 0.00 in0.0 mm
05:28 PM 40.3°F4.6°C 29.5°F-1.4°C 65% 6.9 mph SSW11.1 kmh SSW 15.9 mph25.6 kmh 30.51 in1033.2 mb 0.00 in0.0 mm 0.00 in/hr0.0 mm/hr 0.00 in0.0 mm
05:29 PM 40.3°F4.6°C 29.5°F-1.4°C 65% 4.5 mph SSW7.2 kmh SSW 15.9 mph25.6 kmh 30.51 in1033.2 mb 0.00 in0.0 mm 0.00 in/hr0.0 mm/hr 0.00 in0.0 mm
05:30 PM 40.3°F4.6°C 29.8°F-1.2°C 66% 3.8 mph SSW6.1 kmh SSW 15.9 mph25.6 kmh 30.51 in1033.2 mb 0.00 in0.0 mm 0.00 in/hr0.0 mm/hr 0.00 in0.0 mm
05:31 PM 40.1°F4.5°C 29.7°F-1.3°C 66% 4.5 mph SSW7.2 kmh SSW 15.9 mph25.6 kmh 30.51 in1033.2 mb 0.00 in0.0 mm 0.00 in/hr0.0 mm/hr 0.00 in0.0 mm
05:32 PM 39.9°F4.4°C 29.5°F-1.4°C 66% 6.9 mph SW11.1 kmh SW 15.9 mph25.6 kmh 30.51 in1033.2 mb 0.00 in0.0 mm 0.00 in/hr0.0 mm/hr 0.00 in0.0 mm
05:33 PM 39.9°F4.4°C 29.5°F-1.4°C 66% 6.0 mph SW9.7 kmh SW 15.9 mph25.6 kmh 30.51 in1033.2 mb 0.00 in0.0 mm 0.00 in/hr0.0 mm/hr 0.00 in0.0 mm
05:34 PM 39.9°F4.4°C 29.5°F-1.4°C 66% 5.4 mph SW8.7 kmh SW 15.9 mph25.6 kmh 30.51 in1033.2 mb 0.00 in0.0 mm 0.00 in/hr0.0 mm/hr 0.00 in0.0 mm
05:35 PM 39.9°F4.4°C 29.5°F-1.4°C 66% 6.9 mph SW11.1 kmh SW 15.9 mph25.6 kmh 30.51 in1033.2 mb 0.00 in0.0 mm 0.00 in/hr0.0 mm/hr 0.00 in0.0 mm
05:36 PM 39.9°F4.4°C 29.5°F-1.4°C 66% 6.0 mph SW9.7 kmh SW 14.5 mph23.3 kmh 30.51 in1033.2 mb 0.00 in0.0 mm 0.00 in/hr0.0 mm/hr 0.00 in0.0 mm
05:37 PM 39.9°F4.4°C 29.5°F-1.4°C 66% 6.0 mph SW9.7 kmh SW 14.5 mph23.3 kmh 30.51 in1033.2 mb 0.00 in0.0 mm 0.00 in/hr0.0 mm/hr 0.00 in0.0 mm
05:38 PM 39.9°F4.4°C 29.5°F-1.4°C 66% 6.0 mph SW9.7 kmh SW 14.5 mph23.3 kmh 30.52 in1033.5 mb 0.00 in0.0 mm 0.00 in/hr0.0 mm/hr 0.00 in0.0 mm
05:39 PM 39.9°F4.4°C 29.5°F-1.4°C 66% 3.1 mph SW5.0 kmh SW 14.5 mph23.3 kmh 30.51 in1033.2 mb 0.00 in0.0 mm 0.00 in/hr0.0 mm/hr 0.00 in0.0 mm
05:40 PM 39.9°F4.4°C 29.5°F-1.4°C 66% 3.8 mph SSW6.1 kmh SSW 14.5 mph23.3 kmh 30.51 in1033.2 mb 0.00 in0.0 mm 0.00 in/hr0.0 mm/hr 0.00 in0.0 mm
05:41 PM 39.9°F4.4°C 29.5°F-1.4°C 66% 3.1 mph SSW5.0 kmh SSW 14.5 mph23.3 kmh 30.52 in1033.5 mb 0.00 in0.0 mm 0.00 in/hr0.0 mm/hr 0.00 in0.0 mm
05:42 PM 39.9°F4.4°C 29.9°F-1.2°C 67% 6.0 mph SSW9.7 kmh SSW 14.5 mph23.3 kmh 30.52 in1033.5 mb 0.00 in0.0 mm 0.00 in/hr0.0 mm/hr 0.00 in0.0 mm
05:43 PM 39.9°F4.4°C 29.9°F-1.2°C 67% 5.4 mph SSW8.7 kmh SSW 14.5 mph23.3 kmh 30.52 in1033.5 mb 0.00 in0.0 mm 0.00 in/hr0.0 mm/hr 0.00 in0.0 mm
05:44 PM 39.9°F4.4°C 29.9°F-1.2°C 67% 6.9 mph SSW11.1 kmh SSW 14.5 mph23.3 kmh 30.51 in1033.2 mb 0.00 in0.0 mm 0.00 in/hr0.0 mm/hr 0.00 in0.0 mm
05:45 PM 39.9°F4.4°C 29.9°F-1.2°C 67% 4.5 mph SSW7.2 kmh SSW 14.5 mph23.3 kmh 30.52 in1033.5 mb 0.00 in0.0 mm 0.00 in/hr0.0 mm/hr 0.00 in0.0 mm
05:46 PM 39.9°F4.4°C 29.9°F-1.2°C 67% 6.9 mph S11.1 kmh S 14.5 mph23.3 kmh 30.52 in1033.5 mb 0.00 in0.0 mm 0.00 in/hr0.0 mm/hr 0.00 in0.0 mm
05:47 PM 39.9°F4.4°C 29.9°F-1.2°C 67% 5.4 mph S8.7 kmh S 14.5 mph23.3 kmh 30.52 in1033.5 mb 0.00 in0.0 mm 0.00 in/hr0.0 mm/hr 0.00 in0.0 mm
05:48 PM 39.9°F4.4°C 29.9°F-1.2°C 67% 4.5 mph S7.2 kmh S 14.5 mph23.3 kmh 30.52 in1033.5 mb 0.00 in0.0 mm 0.00 in/hr0.0 mm/hr 0.00 in0.0 mm
05:49 PM 39.9°F4.4°C 29.9°F-1.2°C 67% 8.3 mph SSW13.4 kmh SSW 14.5 mph23.3 kmh 30.52 in1033.5 mb 0.00 in0.0 mm 0.00 in/hr0.0 mm/hr 0.00 in0.0 mm
05:50 PM 39.9°F4.4°C 29.9°F-1.2°C 67% 4.5 mph SSW7.2 kmh SSW 14.5 mph23.3 kmh 30.52 in1033.5 mb 0.00 in0.0 mm 0.00 in/hr0.0 mm/hr 0.00 in0.0 mm
05:51 PM 40.1°F4.5°C 30.0°F-1.1°C 67% 6.0 mph SSW9.7 kmh SSW 14.5 mph23.3 kmh 30.53 in1033.9 mb 0.00 in0.0 mm 0.00 in/hr0.0 mm/hr 0.00 in0.0 mm
05:52 PM 40.1°F4.5°C 30.0°F-1.1°C 67% 4.5 mph SSW7.2 kmh SSW 14.5 mph23.3 kmh 30.52 in1033.5 mb 0.00 in0.0 mm 0.00 in/hr0.0 mm/hr 0.00 in0.0 mm
05:53 PM 40.1°F4.5°C 29.7°F-1.3°C 66% 6.9 mph SSW11.1 kmh SSW 14.5 mph23.3 kmh 30.53 in1033.9 mb 0.00 in0.0 mm 0.00 in/hr0.0 mm/hr 0.00 in0.0 mm
05:54 PM 40.1°F4.5°C 29.7°F-1.3°C 66% 3.8 mph SSW6.1 kmh SSW 14.5 mph23.3 kmh 30.53 in1033.9 mb 0.00 in0.0 mm 0.00 in/hr0.0 mm/hr 0.00 in0.0 mm
05:55 PM 40.1°F4.5°C 29.7°F-1.3°C 66% 3.1 mph SSW5.0 kmh SSW 14.5 mph23.3 kmh 30.52 in1033.5 mb 0.00 in0.0 mm 0.00 in/hr0.0 mm/hr 0.00 in0.0 mm
05:56 PM 39.9°F4.4°C 29.5°F-1.4°C 66% 2.2 mph SSW3.5 kmh SSW 14.5 mph23.3 kmh 30.52 in1033.5 mb 0.00 in0.0 mm 0.00 in/hr0.0 mm/hr 0.00 in0.0 mm
05:57 PM 39.9°F4.4°C 29.5°F-1.4°C 66% 3.1 mph SSW5.0 kmh SSW 14.5 mph23.3 kmh 30.53 in1033.9 mb 0.00 in0.0 mm 0.00 in/hr0.0 mm/hr 0.00 in0.0 mm
05:58 PM 39.7°F4.3°C 29.7°F-1.3°C 67% 3.8 mph SSW6.1 kmh SSW 14.5 mph23.3 kmh 30.52 in1033.5 mb 0.00 in0.0 mm 0.00 in/hr0.0 mm/hr 0.00 in0.0 mm
05:59 PM 39.6°F4.2°C 29.5°F-1.4°C 67% 3.8 mph S6.1 kmh S 14.5 mph23.3 kmh 30.53 in1033.9 mb 0.00 in0.0 mm 0.00 in/hr0.0 mm/hr 0.00 in0.0 mm
06:00 PM 39.6°F4.2°C 29.5°F-1.4°C 67% 3.8 mph S6.1 kmh S 14.5 mph23.3 kmh 30.53 in1033.9 mb 0.00 in0.0 mm 0.00 in/hr0.0 mm/hr 0.00 in0.0 mm
06:01 PM 39.6°F4.2°C 29.5°F-1.4°C 67% 4.5 mph S7.2 kmh S 14.5 mph23.3 kmh 30.53 in1033.9 mb 0.00 in0.0 mm 0.00 in/hr0.0 mm/hr 0.00 in0.0 mm
06:02 PM 39.6°F4.2°C 29.5°F-1.4°C 67% 5.4 mph S8.7 kmh S 14.5 mph23.3 kmh 30.53 in1033.9 mb 0.00 in0.0 mm 0.00 in/hr0.0 mm/hr 0.00 in0.0 mm
06:03 PM 39.4°F4.1°C 29.7°F-1.3°C 68% 4.5 mph S7.2 kmh S 13.0 mph20.9 kmh 30.53 in1033.9 mb 0.00 in0.0 mm 0.00 in/hr0.0 mm/hr 0.00 in0.0 mm
06:04 PM 39.4°F4.1°C 29.4°F-1.4°C 67% 3.1 mph S5.0 kmh S 9.8 mph15.8 kmh 30.53 in1033.9 mb 0.00 in0.0 mm 0.00 in/hr0.0 mm/hr 0.00 in0.0 mm
06:05 PM 39.4°F4.1°C 29.4°F-1.4°C 67% 0.7 mph S1.1 kmh S 9.8 mph15.8 kmh 30.53 in1033.9 mb 0.00 in0.0 mm 0.00 in/hr0.0 mm/hr 0.00 in0.0 mm
06:06 PM 39.4°F4.1°C 29.4°F-1.4°C 67% 2.2 mph S3.5 kmh S 9.8 mph15.8 kmh 30.54 in1034.2 mb 0.00 in0.0 mm 0.00 in/hr0.0 mm/hr 0.00 in0.0 mm
06:07 PM 39.2°F4.0°C 29.5°F-1.4°C 68% 2.2 mph SSW3.5 kmh SSW 9.8 mph15.8 kmh 30.53 in1033.9 mb 0.00 in0.0 mm 0.00 in/hr0.0 mm/hr 0.00 in0.0 mm
06:08 PM 39.2°F4.0°C 29.5°F-1.4°C 68% 0.7 mph SSW1.1 kmh SSW 9.8 mph15.8 kmh 30.53 in1033.9 mb 0.00 in0.0 mm 0.00 in/hr0.0 mm/hr 0.00 in0.0 mm
06:09 PM 39.2°F4.0°C 29.5°F-1.4°C 68% 0.7 mph SSW1.1 kmh SSW 9.8 mph15.8 kmh 30.53 in1033.9 mb 0.00 in0.0 mm 0.00 in/hr0.0 mm/hr 0.00 in0.0 mm
06:10 PM 39.0°F3.9°C 29.4°F-1.4°C 68% 0.7 mph SSW1.1 kmh SSW 9.8 mph15.8 kmh 30.53 in1033.9 mb 0.00 in0.0 mm 0.00 in/hr0.0 mm/hr 0.00 in0.0 mm
06:11 PM 38.8°F3.8°C 28.8°F-1.8°C 67% Calm Calm 9.8 mph15.8 kmh 30.53 in1033.9 mb 0.00 in0.0 mm 0.00 in/hr0.0 mm/hr 0.00 in0.0 mm
06:12 PM 38.7°F3.7°C 29.0°F-1.7°C 68% 2.2 mph SSW3.5 kmh SSW 9.2 mph14.8 kmh 30.54 in1034.2 mb 0.00 in0.0 mm 0.00 in/hr0.0 mm/hr 0.00 in0.0 mm
06:13 PM 38.7°F3.7°C 29.0°F-1.7°C 68% 1.6 mph SSW2.6 kmh SSW 9.2 mph14.8 kmh 30.53 in1033.9 mb 0.00 in0.0 mm 0.00 in/hr0.0 mm/hr 0.00 in0.0 mm
06:14 PM 38.5°F3.6°C 28.9°F-1.7°C 68% 1.6 mph S2.6 kmh S 6.9 mph11.1 kmh 30.54 in1034.2 mb 0.00 in0.0 mm 0.00 in/hr0.0 mm/hr 0.00 in0.0 mm
06:15 PM 38.3°F3.5°C 28.7°F-1.8°C 68% 1.6 mph S2.6 kmh S 6.0 mph9.7 kmh 30.54 in1034.2 mb 0.00 in0.0 mm 0.00 in/hr0.0 mm/hr 0.00 in0.0 mm
06:16 PM 38.1°F3.4°C 28.9°F-1.7°C 69% 0.7 mph SSW1.1 kmh SSW 6.0 mph9.7 kmh 30.53 in1033.9 mb 0.00 in0.0 mm 0.00 in/hr0.0 mm/hr 0.00 in0.0 mm
06:17 PM 38.1°F3.4°C 28.9°F-1.7°C 69% 2.2 mph S3.5 kmh S 6.0 mph9.7 kmh 30.53 in1033.9 mb 0.00 in0.0 mm 0.00 in/hr0.0 mm/hr 0.00 in0.0 mm
06:18 PM 38.1°F3.4°C 29.2°F-1.6°C 70% 2.2 mph S3.5 kmh S 6.0 mph9.7 kmh 30.53 in1033.9 mb 0.00 in0.0 mm 0.00 in/hr0.0 mm/hr 0.00 in0.0 mm
06:19 PM 37.9°F3.3°C 29.0°F-1.7°C 70% 1.6 mph S2.6 kmh S 6.9 mph11.1 kmh 30.54 in1034.2 mb 0.00 in0.0 mm 0.00 in/hr0.0 mm/hr 0.00 in0.0 mm
06:20 PM 37.9°F3.3°C 29.0°F-1.7°C 70% 2.2 mph S3.5 kmh S 6.9 mph11.1 kmh 30.54 in1034.2 mb 0.00 in0.0 mm 0.00 in/hr0.0 mm/hr 0.00 in0.0 mm
06:21 PM 37.8°F3.2°C 28.9°F-1.7°C 70% 2.2 mph SSW3.5 kmh SSW 6.9 mph11.1 kmh 30.54 in1034.2 mb 0.00 in0.0 mm 0.00 in/hr0.0 mm/hr 0.00 in0.0 mm
06:22 PM 37.8°F3.2°C 28.9°F-1.7°C 70% 2.2 mph SW3.5 kmh SW 6.9 mph11.1 kmh 30.53 in1033.9 mb 0.00 in0.0 mm 0.00 in/hr0.0 mm/hr 0.00 in0.0 mm
06:23 PM 37.6°F3.1°C 29.0°F-1.7°C 71% 2.2 mph SW3.5 kmh SW 7.6 mph12.2 kmh 30.54 in1034.2 mb 0.00 in0.0 mm 0.00 in/hr0.0 mm/hr 0.00 in0.0 mm
06:24 PM 37.6°F3.1°C 29.0°F-1.7°C 71% 3.1 mph SW5.0 kmh SW 7.6 mph12.2 kmh 30.54 in1034.2 mb 0.00 in0.0 mm 0.00 in/hr0.0 mm/hr 0.00 in0.0 mm
06:25 PM 37.6°F3.1°C 29.0°F-1.7°C 71% 1.6 mph SW2.6 kmh SW 7.6 mph12.2 kmh 30.54 in1034.2 mb 0.00 in0.0 mm 0.00 in/hr0.0 mm/hr 0.00 in0.0 mm
06:26 PM 37.4°F3.0°C 28.9°F-1.7°C 71% 1.6 mph SW2.6 kmh SW 7.6 mph12.2 kmh 30.54 in1034.2 mb 0.00 in0.0 mm 0.00 in/hr0.0 mm/hr 0.00 in0.0 mm
06:27 PM 37.4°F3.0°C 29.2°F-1.6°C 72% 3.8 mph SW6.1 kmh SW 7.6 mph12.2 kmh 30.54 in1034.2 mb 0.00 in0.0 mm 0.00 in/hr0.0 mm/hr 0.00 in0.0 mm
06:28 PM 37.4°F3.0°C 29.2°F-1.6°C 72% 2.2 mph SW3.5 kmh SW 7.6 mph12.2 kmh 30.54 in1034.2 mb 0.00 in0.0 mm 0.00 in/hr0.0 mm/hr 0.00 in0.0 mm
06:29 PM 37.4°F3.0°C 29.2°F-1.6°C 72% 3.1 mph SW5.0 kmh SW 7.6 mph12.2 kmh 30.54 in1034.2 mb 0.00 in0.0 mm 0.00 in/hr0.0 mm/hr 0.00 in0.0 mm
06:30 PM 37.4°F3.0°C 29.2°F-1.6°C 72% 2.2 mph SW3.5 kmh SW 7.6 mph12.2 kmh 30.53 in1033.9 mb 0.00 in0.0 mm 0.00 in/hr0.0 mm/hr 0.00 in0.0 mm
06:31 PM 37.4°F3.0°C 29.2°F-1.6°C 72% 2.2 mph SW3.5 kmh SW 7.6 mph12.2 kmh 30.54 in1034.2 mb 0.00 in0.0 mm 0.00 in/hr0.0 mm/hr 0.00 in0.0 mm
06:32 PM 37.4°F3.0°C 29.2°F-1.6°C 72% 3.1 mph SSW5.0 kmh SSW 7.6 mph12.2 kmh 30.54 in1034.2 mb 0.00 in0.0 mm 0.00 in/hr0.0 mm/hr 0.00 in0.0 mm
06:33 PM 37.4°F3.0°C 29.2°F-1.6°C 72% 2.2 mph SSW3.5 kmh SSW 7.6 mph12.2 kmh 30.54 in1034.2 mb 0.00 in0.0 mm 0.00 in/hr0.0 mm/hr 0.00 in0.0 mm
06:34 PM 37.2°F2.9°C 29.0°F-1.7°C 72% 3.8 mph S6.1 kmh S 7.6 mph12.2 kmh 30.54 in1034.2 mb 0.00 in0.0 mm 0.00 in/hr0.0 mm/hr 0.00 in0.0 mm
06:35 PM 37.2°F2.9°C 29.0°F-1.7°C 72% 3.1 mph S5.0 kmh S 8.3 mph13.4 kmh 30.54 in1034.2 mb 0.00 in0.0 mm 0.00 in/hr0.0 mm/hr 0.00 in0.0 mm
06:36 PM 37.2°F2.9°C 29.0°F-1.7°C 72% 2.2 mph S3.5 kmh S 8.3 mph13.4 kmh 30.54 in1034.2 mb 0.00 in0.0 mm 0.00 in/hr0.0 mm/hr 0.00 in0.0 mm
06:37 PM 37.2°F2.9°C 29.0°F-1.7°C 72% 2.2 mph S3.5 kmh S 8.3 mph13.4 kmh 30.54 in1034.2 mb 0.00 in0.0 mm 0.00 in/hr0.0 mm/hr 0.00 in0.0 mm
06:38 PM 37.0°F2.8°C 29.2°F-1.6°C 73% 2.2 mph S3.5 kmh S 8.3 mph13.4 kmh 30.54 in1034.2 mb 0.00 in0.0 mm 0.00 in/hr0.0 mm/hr 0.00 in0.0 mm
06:39 PM 37.0°F2.8°C 29.2°F-1.6°C 73% 3.1 mph S5.0 kmh S 8.3 mph13.4 kmh 30.54 in1034.2 mb 0.00 in0.0 mm 0.00 in/hr0.0 mm/hr 0.00 in0.0 mm
06:40 PM 37.0°F2.8°C 29.2°F-1.6°C 73% 2.2 mph S3.5 kmh S 8.3 mph13.4 kmh 30.54 in1034.2 mb 0.00 in0.0 mm 0.00 in/hr0.0 mm/hr 0.00 in0.0 mm
06:41 PM 37.0°F2.8°C 29.2°F-1.6°C 73% 1.6 mph S2.6 kmh S 8.3 mph13.4 kmh 30.54 in1034.2 mb 0.00 in0.0 mm 0.00 in/hr0.0 mm/hr 0.00 in0.0 mm
06:42 PM 37.0°F2.8°C 29.2°F-1.6°C 73% 0.7 mph SSW1.1 kmh SSW 9.2 mph14.8 kmh 30.54 in1034.2 mb 0.00 in0.0 mm 0.00 in/hr0.0 mm/hr 0.00 in0.0 mm
06:43 PM 36.9°F2.7°C 29.0°F-1.7°C 73% 3.1 mph SSW5.0 kmh SSW 9.2 mph14.8 kmh 30.54 in1034.2 mb 0.00 in0.0 mm 0.00 in/hr0.0 mm/hr 0.00 in0.0 mm
06:44 PM 36.9°F2.7°C 29.0°F-1.7°C 73% 2.2 mph SW3.5 kmh SW 9.2 mph14.8 kmh 30.54 in1034.2 mb 0.00 in0.0 mm 0.00 in/hr0.0 mm/hr 0.00 in0.0 mm
06:45 PM 36.9°F2.7°C 29.0°F-1.7°C 73% 3.1 mph SW5.0 kmh SW 9.2 mph14.8 kmh 30.54 in1034.2 mb 0.00 in0.0 mm 0.00 in/hr0.0 mm/hr 0.00 in0.0 mm
06:46 PM 36.7°F2.6°C 28.9°F-1.7°C 73% 2.2 mph SW3.5 kmh SW 9.2 mph14.8 kmh 30.54 in1034.2 mb 0.00 in0.0 mm 0.00 in/hr0.0 mm/hr 0.00 in0.0 mm
06:47 PM 36.7°F2.6°C 29.2°F-1.6°C 74% 3.1 mph SW5.0 kmh SW 9.2 mph14.8 kmh 30.54 in1034.2 mb 0.00 in0.0 mm 0.00 in/hr0.0 mm/hr 0.00 in0.0 mm
06:48 PM 36.7°F2.6°C 29.2°F-1.6°C 74% 1.6 mph SW2.6 kmh SW 9.2 mph14.8 kmh 30.54 in1034.2 mb 0.00 in0.0 mm 0.00 in/hr0.0 mm/hr 0.00 in0.0 mm
06:49 PM 36.7°F2.6°C 29.2°F-1.6°C 74% 2.2 mph SW3.5 kmh SW 9.2 mph14.8 kmh 30.53 in1033.9 mb 0.00 in0.0 mm 0.00 in/hr0.0 mm/hr 0.00 in0.0 mm
06:50 PM 36.5°F2.5°C 29.0°F-1.7°C 74% 1.6 mph SW2.6 kmh SW 9.2 mph14.8 kmh 30.54 in1034.2 mb 0.00 in0.0 mm 0.00 in/hr0.0 mm/hr 0.00 in0.0 mm
06:51 PM 36.5°F2.5°C 29.0°F-1.7°C 74% 1.6 mph SW2.6 kmh SW 9.2 mph14.8 kmh 30.54 in1034.2 mb 0.00 in0.0 mm 0.00 in/hr0.0 mm/hr 0.00 in0.0 mm
06:52 PM 36.5°F2.5°C 29.0°F-1.7°C 74% 1.6 mph SSW2.6 kmh SSW 6.9 mph11.1 kmh 30.54 in1034.2 mb 0.00 in0.0 mm 0.00 in/hr0.0 mm/hr 0.00 in0.0 mm
06:53 PM 36.5°F2.5°C 29.0°F-1.7°C 74% 1.6 mph SSW2.6 kmh SSW 6.9 mph11.1 kmh 30.54 in1034.2 mb 0.00 in0.0 mm 0.00 in/hr0.0 mm/hr 0.00 in0.0 mm
06:54 PM 36.5°F2.5°C 29.0°F-1.7°C 74% 0.7 mph SSW1.1 kmh SSW 6.9 mph11.1 kmh 30.53 in1033.9 mb 0.00 in0.0 mm 0.00 in/hr0.0 mm/hr 0.00 in0.0 mm
06:55 PM 36.3°F2.4°C 29.2°F-1.6°C 75% 1.6 mph SSW2.6 kmh SSW 6.9 mph11.1 kmh 30.54 in1034.2 mb 0.00 in0.0 mm 0.00 in/hr0.0 mm/hr 0.00 in0.0 mm
06:56 PM 36.3°F2.4°C 29.2°F-1.6°C 75% 1.6 mph SSW2.6 kmh SSW 6.9 mph11.1 kmh 30.54 in1034.2 mb 0.00 in0.0 mm 0.00 in/hr0.0 mm/hr 0.00 in0.0 mm
06:57 PM 36.3°F2.4°C 29.2°F-1.6°C 75% 2.2 mph S3.5 kmh S 5.4 mph8.7 kmh 30.54 in1034.2 mb 0.00 in0.0 mm 0.00 in/hr0.0 mm/hr 0.00 in0.0 mm
06:58 PM 36.3°F2.4°C 29.2°F-1.6°C 75% 0.7 mph S1.1 kmh S 5.4 mph8.7 kmh 30.53 in1033.9 mb 0.00 in0.0 mm 0.00 in/hr0.0 mm/hr 0.00 in0.0 mm
06:59 PM 36.3°F2.4°C 29.2°F-1.6°C 75% 0.7 mph S1.1 kmh S 5.4 mph8.7 kmh 30.54 in1034.2 mb 0.00 in0.0 mm 0.00 in/hr0.0 mm/hr 0.00 in0.0 mm
07:00 PM 36.3°F2.4°C 29.2°F-1.6°C 75% 1.6 mph S2.6 kmh S 4.5 mph7.2 kmh 30.54 in1034.2 mb 0.00 in0.0 mm 0.00 in/hr0.0 mm/hr 0.00 in0.0 mm
07:01 PM 36.3°F2.4°C 29.2°F-1.6°C 75% 1.6 mph SSW2.6 kmh SSW 4.5 mph7.2 kmh 30.54 in1034.2 mb 0.00 in0.0 mm 0.00 in/hr0.0 mm/hr 0.00 in0.0 mm
07:02 PM 36.3°F2.4°C 29.2°F-1.6°C 75% 1.6 mph S2.6 kmh S 4.5 mph7.2 kmh 30.53 in1033.9 mb 0.00 in0.0 mm 0.00 in/hr0.0 mm/hr 0.00 in0.0 mm
07:03 PM 36.1°F2.3°C 29.0°F-1.7°C 75% 1.6 mph SSW2.6 kmh SSW 4.5 mph7.2 kmh 30.54 in1034.2 mb 0.00 in0.0 mm 0.00 in/hr0.0 mm/hr 0.00 in0.0 mm
07:04 PM 36.1°F2.3°C 29.0°F-1.7°C 75% 0.7 mph SSW1.1 kmh SSW 4.5 mph7.2 kmh 30.54 in1034.2 mb 0.00 in0.0 mm 0.00 in/hr0.0 mm/hr 0.00 in0.0 mm
07:05 PM 36.1°F2.3°C 29.3°F-1.5°C 76% 1.6 mph SSW2.6 kmh SSW 4.5 mph7.2 kmh 30.54 in1034.2 mb 0.00 in0.0 mm 0.00 in/hr0.0 mm/hr 0.00 in0.0 mm
07:06 PM 36.1°F2.3°C 29.3°F-1.5°C 76% 0.7 mph SSW1.1 kmh SSW 4.5 mph7.2 kmh 30.54 in1034.2 mb 0.00 in0.0 mm 0.00 in/hr0.0 mm/hr 0.00 in0.0 mm
07:07 PM 36.1°F2.3°C 29.3°F-1.5°C 76% 0.7 mph SW1.1 kmh SW 4.5 mph7.2 kmh 30.54 in1034.2 mb 0.00 in0.0 mm 0.00 in/hr0.0 mm/hr 0.00 in0.0 mm
07:08 PM 36.1°F2.3°C 29.3°F-1.5°C 76% 2.2 mph SW3.5 kmh SW 5.4 mph8.7 kmh 30.54 in1034.2 mb 0.00 in0.0 mm 0.00 in/hr0.0 mm/hr 0.00 in0.0 mm
07:09 PM 36.1°F2.3°C 29.3°F-1.5°C 76% 1.6 mph SSW2.6 kmh SSW 5.4 mph8.7 kmh 30.54 in1034.2 mb 0.00 in0.0 mm 0.00 in/hr0.0 mm/hr 0.00 in0.0 mm
07:10 PM 36.3°F2.4°C 29.5°F-1.4°C 76% 1.6 mph SSW2.6 kmh SSW 6.9 mph11.1 kmh 30.54 in1034.2 mb 0.00 in0.0 mm 0.00 in/hr0.0 mm/hr 0.00 in0.0 mm
07:11 PM 36.3°F2.4°C 29.8°F-1.2°C 77% 0.7 mph SW1.1 kmh SW 6.9 mph11.1 kmh 30.54 in1034.2 mb 0.00 in0.0 mm 0.00 in/hr0.0 mm/hr 0.00 in0.0 mm
07:12 PM 36.3°F2.4°C 29.5°F-1.4°C 76% 1.6 mph SW2.6 kmh SW 6.9 mph11.1 kmh 30.54 in1034.2 mb 0.00 in0.0 mm 0.00 in/hr0.0 mm/hr 0.00 in0.0 mm
07:13 PM 36.3°F2.4°C 29.5°F-1.4°C 76% 1.6 mph SW2.6 kmh SW 6.9 mph11.1 kmh 30.54 in1034.2 mb 0.00 in0.0 mm 0.00 in/hr0.0 mm/hr 0.00 in0.0 mm
07:14 PM 36.5°F2.5°C 30.0°F-1.1°C 77% 3.1 mph SW5.0 kmh SW 6.9 mph11.1 kmh 30.54 in1034.2 mb 0.00 in0.0 mm 0.00 in/hr0.0 mm/hr 0.00 in0.0 mm
07:15 PM 36.7°F2.6°C 30.2°F-1.0°C 77% 3.8 mph SW6.1 kmh SW 7.6 mph12.2 kmh 30.54 in1034.2 mb 0.00 in0.0 mm 0.00 in/hr0.0 mm/hr 0.00 in0.0 mm
08:34 PM 36.7°F2.6°C 30.2°F-1.0°C 77% 3.8 mph SW6.1 kmh SW 7.6 mph12.2 kmh 30.54 in1034.2 mb 0.00 in0.0 mm 0.00 in/hr0.0 mm/hr 0.00 in0.0 mm
08:35 PM 37.4°F3.0°C 30.2°F-1.0°C 75% 6.9 mph S11.1 kmh S 12.1 mph19.5 kmh 30.55 in1034.5 mb 0.00 in0.0 mm 0.00 in/hr0.0 mm/hr 0.00 in0.0 mm
08:36 PM 37.6°F3.1°C 30.4°F-0.9°C 75% 5.4 mph S8.7 kmh S 12.1 mph19.5 kmh 30.55 in1034.5 mb 0.00 in0.0 mm 0.00 in/hr0.0 mm/hr 0.00 in0.0 mm
08:37 PM 37.6°F3.1°C 30.4°F-0.9°C 75% 3.1 mph SSW5.0 kmh SSW 12.1 mph19.5 kmh 30.55 in1034.5 mb 0.00 in0.0 mm 0.00 in/hr0.0 mm/hr 0.00 in0.0 mm
08:38 PM 37.6°F3.1°C 30.4°F-0.9°C 75% 5.4 mph SSW8.7 kmh SSW 12.1 mph19.5 kmh 30.55 in1034.5 mb 0.00 in0.0 mm 0.00 in/hr0.0 mm/hr 0.00 in0.0 mm
08:39 PM 37.6°F3.1°C 30.4°F-0.9°C 75% 3.8 mph SSW6.1 kmh SSW 12.1 mph19.5 kmh 30.55 in1034.5 mb 0.00 in0.0 mm 0.00 in/hr0.0 mm/hr 0.00 in0.0 mm
08:40 PM 37.6°F3.1°C 30.4°F-0.9°C 75% 3.1 mph SSW5.0 kmh SSW 12.1 mph19.5 kmh 30.55 in1034.5 mb 0.00 in0.0 mm 0.00 in/hr0.0 mm/hr 0.00 in0.0 mm
08:41 PM 37.6°F3.1°C 30.4°F-0.9°C 75% 4.5 mph SSW7.2 kmh SSW 12.1 mph19.5 kmh 30.55 in1034.5 mb 0.00 in0.0 mm 0.00 in/hr0.0 mm/hr 0.00 in0.0 mm
08:42 PM 37.6°F3.1°C 30.4°F-0.9°C 75% 3.8 mph SSW6.1 kmh SSW 12.1 mph19.5 kmh 30.55 in1034.5 mb 0.00 in0.0 mm 0.00 in/hr0.0 mm/hr 0.00 in0.0 mm
08:43 PM 37.6°F3.1°C 30.1°F-1.1°C 74% 3.1 mph S5.0 kmh S 12.1 mph19.5 kmh 30.55 in1034.5 mb 0.00 in0.0 mm 0.00 in/hr0.0 mm/hr 0.00 in0.0 mm
08:44 PM 37.8°F3.2°C 30.2°F-1.0°C 74% 3.1 mph S5.0 kmh S 12.1 mph19.5 kmh 30.55 in1034.5 mb 0.00 in0.0 mm 0.00 in/hr0.0 mm/hr 0.00 in0.0 mm
08:45 PM 37.8°F3.2°C 30.2°F-1.0°C 74% 2.2 mph S3.5 kmh S 12.1 mph19.5 kmh 30.55 in1034.5 mb 0.00 in0.0 mm 0.00 in/hr0.0 mm/hr 0.00 in0.0 mm
08:46 PM 37.8°F3.2°C 30.2°F-1.0°C 74% 0.7 mph S1.1 kmh S 11.4 mph18.3 kmh 30.55 in1034.5 mb 0.00 in0.0 mm 0.00 in/hr0.0 mm/hr 0.00 in0.0 mm
08:47 PM 37.8°F3.2°C 30.2°F-1.0°C 74% 2.2 mph S3.5 kmh S 11.4 mph18.3 kmh 30.55 in1034.5 mb 0.00 in0.0 mm 0.00 in/hr0.0 mm/hr 0.00 in0.0 mm
08:48 PM 37.8°F3.2°C 30.2°F-1.0°C 74% 3.8 mph S6.1 kmh S 11.4 mph18.3 kmh 30.55 in1034.5 mb 0.00 in0.0 mm 0.00 in/hr0.0 mm/hr 0.00 in0.0 mm
08:49 PM 37.8°F3.2°C 30.2°F-1.0°C 74% 3.8 mph SSW6.1 kmh SSW 11.4 mph18.3 kmh 30.56 in1034.9 mb 0.00 in0.0 mm 0.00 in/hr0.0 mm/hr 0.00 in0.0 mm
08:50 PM 37.8°F3.2°C 30.2°F-1.0°C 74% 3.1 mph SW5.0 kmh SW 11.4 mph18.3 kmh 30.55 in1034.5 mb 0.00 in0.0 mm 0.00 in/hr0.0 mm/hr 0.00 in0.0 mm
08:51 PM 37.9°F3.3°C 30.4°F-0.9°C 74% 4.5 mph SW7.2 kmh SW 11.4 mph18.3 kmh 30.55 in1034.5 mb 0.00 in0.0 mm 0.00 in/hr0.0 mm/hr 0.00 in0.0 mm
08:52 PM 38.1°F3.4°C 30.6°F-0.8°C 74% 1.6 mph SSW2.6 kmh SSW 9.2 mph14.8 kmh 30.56 in1034.9 mb 0.00 in0.0 mm 0.00 in/hr0.0 mm/hr 0.00 in0.0 mm
08:53 PM 38.1°F3.4°C 30.2°F-1.0°C 73% 2.2 mph SW3.5 kmh SW 9.2 mph14.8 kmh 30.55 in1034.5 mb 0.00 in0.0 mm 0.00 in/hr0.0 mm/hr 0.00 in0.0 mm
08:54 PM 38.1°F3.4°C 30.2°F-1.0°C 73% 3.1 mph SW5.0 kmh SW 9.2 mph14.8 kmh 30.55 in1034.5 mb 0.00 in0.0 mm 0.00 in/hr0.0 mm/hr 0.00 in0.0 mm
08:55 PM 38.5°F3.6°C 30.6°F-0.8°C 73% 3.8 mph SSW6.1 kmh SSW 10.7 mph17.2 kmh 30.56 in1034.9 mb 0.00 in0.0 mm 0.00 in/hr0.0 mm/hr 0.00 in0.0 mm
08:56 PM 38.7°F3.7°C 30.8°F-0.7°C 73% 4.5 mph SSW7.2 kmh SSW 10.7 mph17.2 kmh 30.55 in1034.5 mb 0.00 in0.0 mm 0.00 in/hr0.0 mm/hr 0.00 in0.0 mm
08:57 PM 39.0°F3.9°C 30.8°F-0.7°C 72% 6.0 mph S9.7 kmh S 10.7 mph17.2 kmh 30.56 in1034.9 mb 0.00 in0.0 mm 0.00 in/hr0.0 mm/hr 0.00 in0.0 mm
08:58 PM 39.2°F4.0°C 30.9°F-0.6°C 72% 4.5 mph S7.2 kmh S 10.7 mph17.2 kmh 30.55 in1034.5 mb 0.00 in0.0 mm 0.00 in/hr0.0 mm/hr 0.00 in0.0 mm
08:59 PM 39.6°F4.2°C 30.9°F-0.6°C 71% 3.8 mph S6.1 kmh S 10.7 mph17.2 kmh 30.55 in1034.5 mb 0.00 in0.0 mm 0.00 in/hr0.0 mm/hr 0.00 in0.0 mm
09:00 PM 39.6°F4.2°C 30.6°F-0.8°C 70% 6.0 mph S9.7 kmh S 11.4 mph18.3 kmh 30.55 in1034.5 mb 0.00 in0.0 mm 0.00 in/hr0.0 mm/hr 0.00 in0.0 mm
09:01 PM 39.6°F4.2°C 30.6°F-0.8°C 70% 4.5 mph S7.2 kmh S 11.4 mph18.3 kmh 30.56 in1034.9 mb 0.00 in0.0 mm 0.00 in/hr0.0 mm/hr 0.00 in0.0 mm
09:02 PM 39.6°F4.2°C 30.6°F-0.8°C 70% 2.2 mph S3.5 kmh S 11.4 mph18.3 kmh 30.56 in1034.9 mb 0.00 in0.0 mm 0.00 in/hr0.0 mm/hr 0.00 in0.0 mm
09:03 PM 39.4°F4.1°C 30.4°F-0.9°C 70% 3.1 mph S5.0 kmh S 11.4 mph18.3 kmh 30.56 in1034.9 mb 0.00 in0.0 mm 0.00 in/hr0.0 mm/hr 0.00 in0.0 mm
09:04 PM 39.4°F4.1°C 30.4°F-0.9°C 70% 2.2 mph SSW3.5 kmh SSW 11.4 mph18.3 kmh 30.55 in1034.5 mb 0.00 in0.0 mm 0.00 in/hr0.0 mm/hr 0.00 in0.0 mm
09:05 PM 39.2°F4.0°C 30.3°F-0.9°C 70% 2.2 mph SSW3.5 kmh SSW 11.4 mph18.3 kmh 30.55 in1034.5 mb 0.00 in0.0 mm 0.00 in/hr0.0 mm/hr 0.00 in0.0 mm
09:06 PM 39.0°F3.9°C 30.1°F-1.1°C 70% 1.6 mph SSW2.6 kmh SSW 11.4 mph18.3 kmh 30.55 in1034.5 mb 0.00 in0.0 mm 0.00 in/hr0.0 mm/hr 0.00 in0.0 mm
09:07 PM 38.8°F3.8°C 29.9°F-1.2°C 70% 4.5 mph SSW7.2 kmh SSW 11.4 mph18.3 kmh 30.55 in1034.5 mb 0.00 in0.0 mm 0.00 in/hr0.0 mm/hr 0.00 in0.0 mm
09:08 PM 38.7°F3.7°C 30.1°F-1.1°C 71% 4.5 mph SSW7.2 kmh SSW 11.4 mph18.3 kmh 30.55 in1034.5 mb 0.00 in0.0 mm 0.00 in/hr0.0 mm/hr 0.00 in0.0 mm
09:09 PM 38.5°F3.6°C 29.9°F-1.2°C 71% 3.1 mph S5.0 kmh S 11.4 mph18.3 kmh 30.56 in1034.9 mb 0.00 in0.0 mm 0.00 in/hr0.0 mm/hr 0.00 in0.0 mm
09:10 PM 38.5°F3.6°C 29.9°F-1.2°C 71% 4.5 mph S7.2 kmh S 11.4 mph18.3 kmh 30.56 in1034.9 mb 0.00 in0.0 mm 0.00 in/hr0.0 mm/hr 0.00 in0.0 mm
09:11 PM 38.3°F3.5°C 29.7°F-1.3°C 71% 3.8 mph S6.1 kmh S 9.8 mph15.8 kmh 30.55 in1034.5 mb 0.00 in0.0 mm 0.00 in/hr0.0 mm/hr 0.00 in0.0 mm
09:12 PM 38.3°F3.5°C 30.1°F-1.1°C 72% 3.8 mph S6.1 kmh S 8.3 mph13.4 kmh 30.56 in1034.9 mb 0.00 in0.0 mm 0.00 in/hr0.0 mm/hr 0.00 in0.0 mm
09:13 PM 38.3°F3.5°C 30.1°F-1.1°C 72% 3.1 mph S5.0 kmh S 8.3 mph13.4 kmh 30.56 in1034.9 mb 0.00 in0.0 mm 0.00 in/hr0.0 mm/hr 0.00 in0.0 mm
09:14 PM 38.1°F3.4°C 29.6°F-1.3°C 71% 3.8 mph S6.1 kmh S 8.3 mph13.4 kmh 30.55 in1034.5 mb 0.00 in0.0 mm 0.00 in/hr0.0 mm/hr 0.00 in0.0 mm
09:15 PM 37.9°F3.3°C 29.7°F-1.3°C 72% 3.1 mph S5.0 kmh S 8.3 mph13.4 kmh 30.56 in1034.9 mb 0.00 in0.0 mm 0.00 in/hr0.0 mm/hr 0.00 in0.0 mm
09:16 PM 37.8°F3.2°C 29.6°F-1.3°C 72% 4.5 mph S7.2 kmh S 8.3 mph13.4 kmh 30.56 in1034.9 mb 0.00 in0.0 mm 0.00 in/hr0.0 mm/hr 0.00 in0.0 mm
09:17 PM 37.6°F3.1°C 29.4°F-1.4°C 72% 3.8 mph S6.1 kmh S 9.8 mph15.8 kmh 30.56 in1034.9 mb 0.00 in0.0 mm 0.00 in/hr0.0 mm/hr 0.00 in0.0 mm
09:18 PM 37.6°F3.1°C 29.4°F-1.4°C 72% 3.8 mph S6.1 kmh S 9.8 mph15.8 kmh 30.56 in1034.9 mb 0.00 in0.0 mm 0.00 in/hr0.0 mm/hr 0.00 in0.0 mm
09:19 PM 37.4°F3.0°C 29.6°F-1.3°C 73% 6.0 mph S9.7 kmh S 9.8 mph15.8 kmh 30.56 in1034.9 mb 0.00 in0.0 mm 0.00 in/hr0.0 mm/hr 0.00 in0.0 mm
09:20 PM 37.2°F2.9°C 29.4°F-1.4°C 73% 4.5 mph S7.2 kmh S 9.8 mph15.8 kmh 30.55 in1034.5 mb 0.00 in0.0 mm 0.00 in/hr0.0 mm/hr 0.00 in0.0 mm
09:21 PM 37.2°F2.9°C 29.4°F-1.4°C 73% 3.1 mph S5.0 kmh S 9.8 mph15.8 kmh 30.55 in1034.5 mb 0.00 in0.0 mm 0.00 in/hr0.0 mm/hr 0.00 in0.0 mm
09:22 PM 37.0°F2.8°C 29.2°F-1.6°C 73% 4.5 mph S7.2 kmh S 9.8 mph15.8 kmh 30.56 in1034.9 mb 0.00 in0.0 mm 0.00 in/hr0.0 mm/hr 0.00 in0.0 mm
09:23 PM 36.9°F2.7°C 29.4°F-1.4°C 74% 3.1 mph S5.0 kmh S 9.8 mph15.8 kmh 30.56 in1034.9 mb 0.00 in0.0 mm 0.00 in/hr0.0 mm/hr 0.00 in0.0 mm
09:24 PM 36.9°F2.7°C 29.4°F-1.4°C 74% 4.5 mph S7.2 kmh S 9.8 mph15.8 kmh 30.56 in1034.9 mb 0.00 in0.0 mm 0.00 in/hr0.0 mm/hr 0.00 in0.0 mm
09:25 PM 36.7°F2.6°C 29.2°F-1.6°C 74% 3.8 mph SSW6.1 kmh SSW 9.8 mph15.8 kmh 30.56 in1034.9 mb 0.00 in0.0 mm 0.00 in/hr0.0 mm/hr 0.00 in0.0 mm
09:26 PM 36.7°F2.6°C 29.2°F-1.6°C 74% 2.2 mph SSW3.5 kmh SSW 9.8 mph15.8 kmh 30.56 in1034.9 mb 0.00 in0.0 mm 0.00 in/hr0.0 mm/hr 0.00 in0.0 mm
09:27 PM 36.5°F2.5°C 29.3°F-1.5°C 75% 3.8 mph SSW6.1 kmh SSW 9.8 mph15.8 kmh 30.57 in1035.2 mb 0.00 in0.0 mm 0.00 in/hr0.0 mm/hr 0.00 in0.0 mm
09:28 PM 36.5°F2.5°C 29.3°F-1.5°C 75% 3.8 mph SSW6.1 kmh SSW 9.8 mph15.8 kmh 30.56 in1034.9 mb 0.00 in0.0 mm 0.00 in/hr0.0 mm/hr 0.00 in0.0 mm
09:29 PM 36.5°F2.5°C 29.3°F-1.5°C 75% 3.8 mph SSW6.1 kmh SSW 9.8 mph15.8 kmh 30.56 in1034.9 mb 0.00 in0.0 mm 0.00 in/hr0.0 mm/hr 0.00 in0.0 mm
09:30 PM 36.5°F2.5°C 29.3°F-1.5°C 75% 2.2 mph SSW3.5 kmh SSW 9.8 mph15.8 kmh 30.56 in1034.9 mb 0.00 in0.0 mm 0.00 in/hr0.0 mm/hr 0.00 in0.0 mm
09:31 PM 36.3°F2.4°C 29.2°F-1.6°C 75% 3.1 mph SSW5.0 kmh SSW 9.8 mph15.8 kmh 30.56 in1034.9 mb 0.00 in0.0 mm 0.00 in/hr0.0 mm/hr 0.00 in0.0 mm
09:32 PM 36.3°F2.4°C 29.2°F-1.6°C 75% 3.1 mph SW5.0 kmh SW 9.8 mph15.8 kmh 30.56 in1034.9 mb 0.00 in0.0 mm 0.00 in/hr0.0 mm/hr 0.00 in0.0 mm
09:33 PM 36.3°F2.4°C 29.5°F-1.4°C 76% 3.8 mph SSW6.1 kmh SSW 9.8 mph15.8 kmh 30.56 in1034.9 mb 0.00 in0.0 mm 0.00 in/hr0.0 mm/hr 0.00 in0.0 mm
09:34 PM 36.3°F2.4°C 29.5°F-1.4°C 76% 2.2 mph SSW3.5 kmh SSW 9.8 mph15.8 kmh 30.56 in1034.9 mb 0.00 in0.0 mm 0.00 in/hr0.0 mm/hr 0.00 in0.0 mm
09:35 PM 36.3°F2.4°C 29.5°F-1.4°C 76% 2.2 mph S3.5 kmh S 9.8 mph15.8 kmh 30.56 in1034.9 mb 0.00 in0.0 mm 0.00 in/hr0.0 mm/hr 0.00 in0.0 mm
09:36 PM 36.3°F2.4°C 29.5°F-1.4°C 76% 1.6 mph S2.6 kmh S 9.8 mph15.8 kmh 30.56 in1034.9 mb 0.00 in0.0 mm 0.00 in/hr0.0 mm/hr 0.00 in0.0 mm
09:37 PM 36.3°F2.4°C 29.5°F-1.4°C 76% 3.8 mph S6.1 kmh S 9.8 mph15.8 kmh 30.56 in1034.9 mb 0.00 in0.0 mm 0.00 in/hr0.0 mm/hr 0.00 in0.0 mm
09:38 PM 36.3°F2.4°C 29.5°F-1.4°C 76% 2.2 mph S3.5 kmh S 9.8 mph15.8 kmh 30.56 in1034.9 mb 0.00 in0.0 mm 0.00 in/hr0.0 mm/hr 0.00 in0.0 mm
09:39 PM 36.3°F2.4°C 29.5°F-1.4°C 76% 3.8 mph S6.1 kmh S 9.8 mph15.8 kmh 30.56 in1034.9 mb 0.00 in0.0 mm 0.00 in/hr0.0 mm/hr 0.00 in0.0 mm
09:40 PM 36.3°F2.4°C 29.5°F-1.4°C 76% 2.2 mph S3.5 kmh S 9.8 mph15.8 kmh 30.56 in1034.9 mb 0.00 in0.0 mm 0.00 in/hr0.0 mm/hr 0.00 in0.0 mm
09:41 PM 36.3°F2.4°C 29.5°F-1.4°C 76% 1.6 mph S2.6 kmh S 9.8 mph15.8 kmh 30.55 in1034.5 mb 0.00 in0.0 mm 0.00 in/hr0.0 mm/hr 0.00 in0.0 mm
09:42 PM 36.3°F2.4°C 29.5°F-1.4°C 76% 3.1 mph S5.0 kmh S 9.8 mph15.8 kmh 30.56 in1034.9 mb 0.00 in0.0 mm 0.00 in/hr0.0 mm/hr 0.00 in0.0 mm
09:43 PM 36.3°F2.4°C 29.8°F-1.2°C 77% 2.2 mph SSW3.5 kmh SSW 9.8 mph15.8 kmh 30.56 in1034.9 mb 0.00 in0.0 mm 0.00 in/hr0.0 mm/hr 0.00 in0.0 mm
09:44 PM 36.1°F2.3°C 29.6°F-1.3°C 77% 3.1 mph SSW5.0 kmh SSW 9.8 mph15.8 kmh 30.56 in1034.9 mb 0.00 in0.0 mm 0.00 in/hr0.0 mm/hr 0.00 in0.0 mm
09:45 PM 36.1°F2.3°C 29.6°F-1.3°C 77% 3.1 mph SSW5.0 kmh SSW 9.8 mph15.8 kmh 30.56 in1034.9 mb 0.00 in0.0 mm 0.00 in/hr0.0 mm/hr 0.00 in0.0 mm
09:46 PM 36.3°F2.4°C 29.8°F-1.2°C 77% 3.8 mph SSW6.1 kmh SSW 9.8 mph15.8 kmh 30.56 in1034.9 mb 0.00 in0.0 mm 0.00 in/hr0.0 mm/hr 0.00 in0.0 mm
09:47 PM 36.3°F2.4°C 29.8°F-1.2°C 77% 1.6 mph SSW2.6 kmh SSW 9.8 mph15.8 kmh 30.56 in1034.9 mb 0.00 in0.0 mm 0.00 in/hr0.0 mm/hr 0.00 in0.0 mm
09:48 PM 36.3°F2.4°C 29.8°F-1.2°C 77% 2.2 mph SSW3.5 kmh SSW 9.8 mph15.8 kmh 30.56 in1034.9 mb 0.00 in0.0 mm 0.00 in/hr0.0 mm/hr 0.00 in0.0 mm
09:49 PM 36.3°F2.4°C 29.8°F-1.2°C 77% 1.6 mph SW2.6 kmh SW 9.8 mph15.8 kmh 30.56 in1034.9 mb 0.00 in0.0 mm 0.00 in/hr0.0 mm/hr 0.00 in0.0 mm
09:50 PM 36.3°F2.4°C 29.8°F-1.2°C 77% 2.2 mph SW3.5 kmh SW 7.6 mph12.2 kmh 30.56 in1034.9 mb 0.00 in0.0 mm 0.00 in/hr0.0 mm/hr 0.00 in0.0 mm
09:51 PM 36.3°F2.4°C 29.8°F-1.2°C 77% 1.6 mph SW2.6 kmh SW 8.3 mph13.4 kmh 30.56 in1034.9 mb 0.00 in0.0 mm 0.00 in/hr0.0 mm/hr 0.00 in0.0 mm